Time;durP1;ratioP1;P1;durP2;ratioP2;P2;SDS_P1;SDS_P2;PMS_P1;PMS_P2;Temp;Humidity;BMP_temperature;BMP_pressure;BME280_temperature;BME280_humidity;BME280_pressure;Samples;Min_cycle;Max_cycle;Signal;HPM_P1;HPM_P2
2022/03/23 00:00:04;;;;;;;24.08;14.95;;;;;;;;;;5057635;28;20028;-75
2022/03/23 00:02:30;;;;;;;28.02;15.82;;;;;;;;;;5058312;28;20077;-76
2022/03/23 00:04:56;;;;;;;25.85;15.40;;;;;;;;;;5060567;28;20378;-76
2022/03/23 00:07:22;;;;;;;25.63;15.20;;;;;;;;;;5055283;28;20021;-76
2022/03/23 00:09:48;;;;;;;26.33;15.13;;;;;;;;;;5071267;28;20036;-75
2022/03/23 00:12:15;;;;;;;47.13;27.90;;;;;;;;;;5059775;28;20052;-75
2022/03/23 00:14:42;;;;;;;44.70;27.00;;;;;;;;;;5063298;28;20044;-77
2022/03/23 00:17:08;;;;;;;29.70;21.98;;;;;;;;;;5064767;28;20481;-76
2022/03/23 00:19:34;;;;;;;27.92;16.35;;;;;;;;;;5061668;28;20398;-75
2022/03/23 00:22:01;;;;;;;33.70;18.95;;;;;;;;;;5058138;28;20050;-75
2022/03/23 00:24:27;;;;;;;27.33;14.15;;;;;;;;;;5063040;28;20032;-75
2022/03/23 00:26:53;;;;;;;26.42;15.50;;;;;;;;;;5067087;28;20041;-76
2022/03/23 00:29:19;;;;;;;28.80;16.23;;;;;;;;;;5071714;28;20041;-75
2022/03/23 00:31:45;;;;;;;26.88;16.00;;;;;;;;;;5058317;28;20024;-77
2022/03/23 00:34:11;;;;;;;30.52;16.67;;;;;;;;;;5065837;28;20104;-75
2022/03/23 00:36:38;;;;;;;25.15;15.82;;;;;;;;;;5055325;28;20079;-76
2022/03/23 00:39:05;;;;;;;27.13;15.30;;;;;;;;;;5069474;28;20028;-76
2022/03/23 00:41:31;;;;;;;25.33;15.32;;;;;;;;;;5058946;28;20036;-75
2022/03/23 00:43:57;;;;;;;27.08;15.25;;;;;;;;;;5061913;28;20048;-77
2022/03/23 00:46:25;;;;;;;27.88;15.43;;;;;;;;;;5068244;28;20024;-75
2022/03/23 00:48:52;;;;;;;27.00;15.02;;;;;;;;;;5073825;28;20025;-76
2022/03/23 00:51:18;;;;;;;25.17;15.05;;;;;;;;;;5076409;28;20036;-77
2022/03/23 00:53:44;;;;;;;27.27;15.50;;;;;;;;;;5058086;28;20028;-78
2022/03/23 00:56:11;;;;;;;24.23;14.82;;;;;;;;;;5060533;28;20021;-75
2022/03/23 00:58:37;;;;;;;26.92;14.82;;;;;;;;;;5060468;28;20086;-75
2022/03/23 01:01:03;;;;;;;27.15;15.52;;;;;;;;;;5064631;28;20482;-79
2022/03/23 01:03:29;;;;;;;25.50;15.45;;;;;;;;;;5063822;28;20518;-75
2022/03/23 01:05:55;;;;;;;25.80;15.40;;;;;;;;;;5058115;28;20033;-76
2022/03/23 01:08:23;;;;;;;24.63;15.15;;;;;;;;;;5064283;28;20028;-76
2022/03/23 01:10:49;;;;;;;25.25;15.30;;;;;;;;;;5074016;28;20040;-75
2022/03/23 01:13:17;;;;;;;30.67;17.75;;;;;;;;;;5079071;28;20017;-76
2022/03/23 01:15:45;;;;;;;25.88;14.73;;;;;;;;;;5066118;28;20016;-76
2022/03/23 01:18:31;;;;;;;25.58;14.25;;;;;;;;;;5069551;28;20093;-76
2022/03/23 01:20:57;;;;;;;23.25;14.68;;;;;;;;;;5072620;28;20028;-76
2022/03/23 01:23:23;;;;;;;26.63;13.80;;;;;;;;;;5082205;28;20025;-76
2022/03/23 01:25:50;;;;;;;25.63;14.00;;;;;;;;;;5073543;28;20028;-76
2022/03/23 01:28:17;;;;;;;25.83;15.80;;;;;;;;;;5062117;28;20048;-76
2022/03/23 01:30:43;;;;;;;36.75;20.08;;;;;;;;;;5071848;28;20144;-76
2022/03/23 01:33:10;;;;;;;47.95;26.75;;;;;;;;;;5062247;28;20024;-76
2022/03/23 01:35:36;;;;;;;33.15;18.95;;;;;;;;;;5059932;28;20446;-76
2022/03/23 01:38:02;;;;;;;32.22;18.00;;;;;;;;;;5069021;28;20032;-79
2022/03/23 01:40:28;;;;;;;24.70;14.85;;;;;;;;;;5073098;28;20099;-76
2022/03/23 01:42:54;;;;;;;29.85;14.63;;;;;;;;;;5082342;28;20379;-76
2022/03/23 01:45:20;;;;;;;32.17;13.50;;;;;;;;;;5070417;28;20149;-75
2022/03/23 01:47:46;;;;;;;25.77;13.50;;;;;;;;;;5060392;28;20556;-76
2022/03/23 01:50:12;;;;;;;24.67;12.85;;;;;;;;;;5059161;28;20037;-76
2022/03/23 01:52:39;;;;;;;22.73;13.18;;;;;;;;;;5059054;28;20108;-76
2022/03/23 01:55:09;;;;;;;26.10;13.00;;;;;;;;;;5065159;28;20029;-77
2022/03/23 01:57:36;;;;;;;30.70;13.10;;;;;;;;;;5070188;28;20104;-76
2022/03/23 02:00:03;;;;;;;29.00;12.25;;;;;;;;;;5075803;28;20021;-78
2022/03/23 02:02:29;;;;;;;28.45;13.68;;;;;;;;;;5067300;28;20092;-76
2022/03/23 02:04:55;;;;;;;25.77;13.52;;;;;;;;;;5059192;28;20056;-76
2022/03/23 02:07:24;;;;;;;29.02;13.65;;;;;;;;;;5066998;28;20025;-78
2022/03/23 02:09:55;;;;;;;25.60;13.13;;;;;;;;;;5070555;28;20101;-76
2022/03/23 02:12:21;;;;;;;31.80;13.93;;;;;;;;;;5070830;28;20032;-76
2022/03/23 02:14:48;;;;;;;25.98;13.27;;;;;;;;;;5060238;28;20067;-75
2022/03/23 02:17:14;;;;;;;33.75;14.00;;;;;;;;;;5058868;28;20033;-77
2022/03/23 02:19:41;;;;;;;41.65;14.38;;;;;;;;;;5061967;28;20024;-75
2022/03/23 02:22:07;;;;;;;36.00;15.10;;;;;;;;;;5061685;28;20025;-75
2022/03/23 02:24:33;;;;;;;34.88;15.20;;;;;;;;;;5056403;28;20027;-78
2022/03/23 02:27:01;;;;;;;30.70;14.23;;;;;;;;;;5056789;28;20087;-75
2022/03/23 02:29:32;;;;;;;30.02;13.88;;;;;;;;;;5060684;28;20075;-76
2022/03/23 02:31:58;;;;;;;32.53;14.70;;;;;;;;;;5061926;28;20032;-77
2022/03/23 02:34:28;;;;;;;32.63;14.05;;;;;;;;;;5073961;28;20032;-76
2022/03/23 02:36:54;;;;;;;32.88;15.15;;;;;;;;;;5057119;28;20033;-75
2022/03/23 02:39:21;;;;;;;30.40;14.48;;;;;;;;;;5057736;28;20047;-76
2022/03/23 02:41:47;;;;;;;36.90;15.32;;;;;;;;;;5070552;28;20108;-76
2022/03/23 02:44:17;;;;;;;28.23;14.07;;;;;;;;;;5058112;28;20036;-77
2022/03/23 02:46:43;;;;;;;42.60;18.50;;;;;;;;;;5059306;28;20025;-77
2022/03/23 02:49:09;;;;;;;34.42;16.42;;;;;;;;;;5058537;28;20021;-76
2022/03/23 02:51:36;;;;;;;44.88;21.80;;;;;;;;;;5064370;28;20226;-76
2022/03/23 03:02:34;;;;;;;29.48;15.35;;;;;;;;;;5063754;28;20501;-76
2022/03/23 03:05:00;;;;;;;25.92;15.18;;;;;;;;;;5063322;28;20029;-77
2022/03/23 03:07:26;;;;;;;26.15;15.63;;;;;;;;;;5061130;28;20033;-77
2022/03/23 03:09:53;;;;;;;35.20;16.65;;;;;;;;;;5057902;28;20029;-75
2022/03/23 03:12:19;;;;;;;35.10;16.95;;;;;;;;;;5057427;28;20037;-75
2022/03/23 03:14:45;;;;;;;30.70;16.58;;;;;;;;;;5067655;28;20017;-76
2022/03/23 03:17:12;;;;;;;28.85;16.83;;;;;;;;;;5057595;28;20031;-75
2022/03/23 03:19:38;;;;;;;32.25;17.45;;;;;;;;;;5067526;28;20058;-76
2022/03/23 03:22:05;;;;;;;32.65;18.02;;;;;;;;;;5068277;28;20089;-78
2022/03/23 03:24:31;;;;;;;30.80;17.92;;;;;;;;;;5064043;28;20024;-77
2022/03/23 03:26:58;;;;;;;32.33;19.05;;;;;;;;;;5071065;28;20029;-75
2022/03/23 03:29:25;;;;;;;36.97;18.92;;;;;;;;;;5059164;28;20047;-77
2022/03/23 03:31:51;;;;;;;36.70;18.70;;;;;;;;;;5068792;28;20123;-76
2022/03/23 03:34:18;;;;;;;29.05;18.88;;;;;;;;;;5060665;28;20037;-75
2022/03/23 03:36:44;;;;;;;30.48;18.10;;;;;;;;;;5077675;28;20031;-75
2022/03/23 03:39:11;;;;;;;34.85;19.10;;;;;;;;;;5074236;28;20066;-74
2022/03/23 03:41:37;;;;;;;29.85;18.10;;;;;;;;;;5059885;28;20025;-77
2022/03/23 03:44:03;;;;;;;39.17;19.05;;;;;;;;;;5058637;28;20063;-74
2022/03/23 03:46:29;;;;;;;31.13;19.80;;;;;;;;;;5061995;28;20021;-75
2022/03/23 03:48:57;;;;;;;43.17;21.00;;;;;;;;;;5065110;28;20024;-75
2022/03/23 03:51:24;;;;;;;37.70;21.10;;;;;;;;;;5069886;28;20037;-75
2022/03/23 03:53:50;;;;;;;39.13;22.13;;;;;;;;;;5061266;28;20104;-77
2022/03/23 03:56:16;;;;;;;48.20;29.35;;;;;;;;;;5065352;28;20024;-75
2022/03/23 03:58:43;;;;;;;49.72;27.65;;;;;;;;;;5056165;28;20027;-76
2022/03/23 04:01:10;;;;;;;43.90;24.33;;;;;;;;;;5072101;28;20095;-76
2022/03/23 04:03:36;;;;;;;38.08;22.80;;;;;;;;;;5070282;28;20363;-75
2022/03/23 04:06:02;;;;;;;42.22;23.45;;;;;;;;;;5066711;28;20031;-75
2022/03/23 04:08:28;;;;;;;47.72;24.25;;;;;;;;;;5061452;28;20087;-75
2022/03/23 04:10:54;;;;;;;41.95;23.90;;;;;;;;;;5071315;28;20055;-76
2022/03/23 04:13:20;;;;;;;41.45;24.35;;;;;;;;;;5066564;28;20486;-74
2022/03/23 04:15:46;;;;;;;45.58;24.35;;;;;;;;;;5055899;28;20459;-74
2022/03/23 04:18:12;;;;;;;40.88;23.23;;;;;;;;;;5070834;28;20545;-75
2022/03/23 04:20:38;;;;;;;44.88;25.42;;;;;;;;;;5060416;28;20036;-75
2022/03/23 04:23:04;;;;;;;48.50;25.85;;;;;;;;;;5075248;28;20078;-75
2022/03/23 04:25:30;;;;;;;50.47;25.75;;;;;;;;;;5065354;28;20029;-74
2022/03/23 04:27:58;;;;;;;53.42;24.92;;;;;;;;;;5076497;28;20048;-74
2022/03/23 04:30:26;;;;;;;49.30;24.50;;;;;;;;;;5061475;28;20049;-75
2022/03/23 04:32:52;;;;;;;40.20;25.08;;;;;;;;;;5074663;28;20027;-75
2022/03/23 04:35:19;;;;;;;44.47;25.05;;;;;;;;;;5065543;28;20051;-75
2022/03/23 04:37:45;;;;;;;40.90;24.30;;;;;;;;;;5073648;28;20021;-76
2022/03/23 04:40:14;;;;;;;41.65;24.30;;;;;;;;;;5074283;28;20065;-75
2022/03/23 04:42:40;;;;;;;39.60;23.70;;;;;;;;;;5069324;28;20039;-76
2022/03/23 04:45:07;;;;;;;44.22;24.02;;;;;;;;;;5070239;28;20035;-76
2022/03/23 04:47:34;;;;;;;47.88;24.77;;;;;;;;;;5064589;28;20522;-75
2022/03/23 04:50:00;;;;;;;42.72;24.92;;;;;;;;;;5057745;28;20037;-75
2022/03/23 04:52:27;;;;;;;42.30;24.70;;;;;;;;;;5065830;28;20052;-74
2022/03/23 04:54:56;;;;;;;45.20;25.85;;;;;;;;;;5062620;28;20034;-75
2022/03/23 04:57:23;;;;;;;49.42;26.45;;;;;;;;;;5058737;28;20025;-75
2022/03/23 04:59:49;;;;;;;43.78;25.23;;;;;;;;;;5062179;28;20028;-75
2022/03/23 05:02:15;;;;;;;47.15;24.35;;;;;;;;;;5075236;28;20078;-75
2022/03/23 05:04:41;;;;;;;46.53;24.88;;;;;;;;;;5060404;28;20035;-75
2022/03/23 05:07:10;;;;;;;42.10;24.77;;;;;;;;;;5068329;28;20064;-75
2022/03/23 05:09:36;;;;;;;40.53;23.58;;;;;;;;;;5065475;28;20429;-75
2022/03/23 05:12:02;;;;;;;45.15;24.27;;;;;;;;;;5070051;28;20120;-73
2022/03/23 05:14:28;;;;;;;46.72;23.23;;;;;;;;;;5069361;28;21635;-73
2022/03/23 05:17:01;;;;;;;41.08;24.88;;;;;;;;;;5069607;28;20025;-73
2022/03/23 05:19:27;;;;;;;42.05;25.13;;;;;;;;;;5063303;28;20033;-77
2022/03/23 05:21:53;;;;;;;43.70;24.70;;;;;;;;;;5072808;28;20454;-77
2022/03/23 05:24:20;;;;;;;44.47;26.45;;;;;;;;;;5078757;28;20512;-77
2022/03/23 05:26:46;;;;;;;45.63;25.05;;;;;;;;;;5070611;28;20127;-77
2022/03/23 05:29:14;;;;;;;40.63;25.05;;;;;;;;;;5062608;28;20456;-78
2022/03/23 05:31:41;;;;;;;39.03;23.85;;;;;;;;;;5074138;28;20036;-77
2022/03/23 05:37:31;;;;;;;49.20;24.00;;;;;;;;;;5024088;28;20034;-77
2022/03/23 05:39:57;;;;;;;41.97;23.90;;;;;;;;;;5027017;28;20509;-75
2022/03/23 05:42:30;;;;;;;38.35;23.67;;;;;;;;;;5030534;28;20038;-79
2022/03/23 05:44:56;;;;;;;36.70;23.98;;;;;;;;;;5019246;28;20468;-70
2022/03/23 05:47:22;;;;;;;38.20;25.48;;;;;;;;;;5030385;28;20022;-75
2022/03/23 05:49:48;;;;;;;36.05;24.60;;;;;;;;;;5023314;28;20072;-73
2022/03/23 05:52:15;;;;;;;37.58;24.63;;;;;;;;;;5027727;28;20071;-69
2022/03/23 05:54:41;;;;;;;41.67;24.98;;;;;;;;;;5023928;28;20046;-71
2022/03/23 05:57:10;;;;;;;40.78;25.55;;;;;;;;;;5027956;28;20034;-75
2022/03/23 05:59:36;;;;;;;33.97;23.27;;;;;;;;;;5028111;28;20068;-74
2022/03/23 06:02:02;;;;;;;44.70;24.75;;;;;;;;;;5004848;28;20033;-77
2022/03/23 06:04:28;;;;;;;47.08;23.52;;;;;;;;;;5005992;28;20096;-77
2022/03/23 06:06:56;;;;;;;41.45;25.05;;;;;;;;;;5025749;28;20041;-81
2022/03/23 06:09:25;;;;;;;44.20;24.27;;;;;;;;;;5028826;28;20064;-82
2022/03/23 06:11:51;;;;;;;39.00;24.92;;;;;;;;;;5027336;28;20069;-78
2022/03/23 06:14:17;;;;;;;43.13;26.08;;;;;;;;;;5045824;28;20059;-83
2022/03/23 06:16:43;;;;;;;37.67;24.17;;;;;;;;;;5059520;28;20047;-73
2022/03/23 06:19:13;;;;;;;43.58;25.00;;;;;;;;;;5061530;28;20024;-74
2022/03/23 06:21:39;;;;;;;37.35;24.77;;;;;;;;;;5060258;28;20029;-75
2022/03/23 06:24:06;;;;;;;34.83;23.83;;;;;;;;;;5071850;28;20029;-74
2022/03/23 06:26:32;;;;;;;33.55;24.83;;;;;;;;;;5063967;28;20033;-74
2022/03/23 06:28:58;;;;;;;35.63;24.02;;;;;;;;;;5071698;28;20540;-75
2022/03/23 06:31:24;;;;;;;32.28;24.83;;;;;;;;;;5065571;28;20429;-74
2022/03/23 06:33:50;;;;;;;40.38;25.58;;;;;;;;;;5066428;28;20042;-73
2022/03/23 06:36:16;;;;;;;44.28;30.90;;;;;;;;;;5052510;28;20064;-75
2022/03/23 06:38:52;;;;;;;48.60;36.08;;;;;;;;;;5055968;28;20044;-69
2022/03/23 06:41:18;;;;;;;39.85;29.42;;;;;;;;;;5061396;28;20043;-72
2022/03/23 06:43:44;;;;;;;44.85;32.08;;;;;;;;;;5064820;28;20040;-74
2022/03/23 06:46:10;;;;;;;41.97;29.88;;;;;;;;;;5053167;28;20066;-73
2022/03/23 06:48:36;;;;;;;39.95;29.55;;;;;;;;;;5065908;28;20063;-75
2022/03/23 06:51:03;;;;;;;38.65;25.98;;;;;;;;;;5065716;28;20540;-75
2022/03/23 06:53:30;;;;;;;36.95;26.05;;;;;;;;;;5056502;28;20369;-74
2022/03/23 06:55:56;;;;;;;36.72;26.88;;;;;;;;;;5064774;28;20024;-73
2022/03/23 06:58:22;;;;;;;42.65;26.92;;;;;;;;;;5064169;28;20055;-72
2022/03/23 07:00:48;;;;;;;35.38;26.63;;;;;;;;;;5069745;28;20032;-72
2022/03/23 07:03:14;;;;;;;40.65;27.88;;;;;;;;;;5063008;28;20029;-73
2022/03/23 07:05:40;;;;;;;48.70;32.70;;;;;;;;;;5068753;28;20020;-86
2022/03/23 07:10:50;;;;;;;38.70;26.13;;;;;;;;;;5065703;28;20051;-77
2022/03/23 07:13:17;;;;;;;38.25;26.95;;;;;;;;;;5066226;28;20111;-80
2022/03/23 07:15:44;;;;;;;39.22;26.63;;;;;;;;;;5071765;28;20474;-82
2022/03/23 07:18:10;;;;;;;39.38;27.50;;;;;;;;;;5064097;28;20242;-78
2022/03/23 07:20:37;;;;;;;39.83;28.95;;;;;;;;;;5067396;28;20031;-71
2022/03/23 07:23:03;;;;;;;44.05;28.38;;;;;;;;;;5066507;28;20025;-71
2022/03/23 07:25:29;;;;;;;46.15;29.02;;;;;;;;;;5061134;28;20086;-74
2022/03/23 07:27:55;;;;;;;42.65;29.15;;;;;;;;;;5062775;28;20040;-84
2022/03/23 07:30:23;;;;;;;42.05;30.20;;;;;;;;;;5065131;28;20390;-84
2022/03/23 07:32:51;;;;;;;45.95;29.98;;;;;;;;;;5066218;28;20021;-80
2022/03/23 07:35:17;;;;;;;58.30;30.88;;;;;;;;;;5068655;28;20024;-82
2022/03/23 07:37:43;;;;;;;49.45;35.00;;;;;;;;;;5057792;28;20032;-86
2022/03/23 07:40:10;;;;;;;48.72;32.42;;;;;;;;;;5062047;28;20524;-76
2022/03/23 07:42:36;;;;;;;43.45;29.65;;;;;;;;;;5065780;28;20048;-78
2022/03/23 07:45:02;;;;;;;48.97;31.95;;;;;;;;;;5063449;28;20123;-76
2022/03/23 07:47:28;;;;;;;45.75;31.20;;;;;;;;;;5066742;28;20027;-73
2022/03/23 07:49:54;;;;;;;52.15;32.35;;;;;;;;;;5061024;28;20090;-71
2022/03/23 07:52:20;;;;;;;44.30;31.42;;;;;;;;;;5061271;28;20021;-72
2022/03/23 07:54:46;;;;;;;49.05;31.70;;;;;;;;;;5066292;28;20385;-78
2022/03/23 07:57:13;;;;;;;43.45;31.15;;;;;;;;;;5062464;28;21269;-73
2022/03/23 07:59:42;;;;;;;49.50;32.95;;;;;;;;;;5070358;28;20478;-77
2022/03/23 08:02:08;;;;;;;47.00;32.05;;;;;;;;;;5066004;28;20047;-71
2022/03/23 08:04:34;;;;;;;45.80;30.58;;;;;;;;;;5070012;28;20466;-71
2022/03/23 08:07:02;;;;;;;42.65;30.65;;;;;;;;;;5071231;28;20040;-73
2022/03/23 08:09:28;;;;;;;44.63;32.03;;;;;;;;;;5065522;28;20103;-75
2022/03/23 08:11:56;;;;;;;45.97;32.22;;;;;;;;;;5067200;28;20024;-73
2022/03/23 08:14:22;;;;;;;49.42;32.08;;;;;;;;;;5069714;28;20037;-72
2022/03/23 08:16:48;;;;;;;52.10;34.70;;;;;;;;;;5067429;28;20025;-73
2022/03/23 08:19:14;;;;;;;52.38;33.92;;;;;;;;;;5070044;28;20029;-79
2022/03/23 08:21:40;;;;;;;52.97;34.65;;;;;;;;;;5064647;28;20036;-78
2022/03/23 08:24:07;;;;;;;61.50;39.85;;;;;;;;;;5066159;28;20475;-75
2022/03/23 08:26:34;;;;;;;78.78;53.95;;;;;;;;;;5073342;28;20125;-77
2022/03/23 08:29:00;;;;;;;64.80;42.45;;;;;;;;;;5070220;28;20055;-75
2022/03/23 08:31:26;;;;;;;47.70;33.88;;;;;;;;;;5067973;28;20048;-77
2022/03/23 08:33:52;;;;;;;49.42;34.53;;;;;;;;;;5067888;28;20086;-73
2022/03/23 08:36:18;;;;;;;54.78;34.72;;;;;;;;;;5066859;28;20108;-75
2022/03/23 08:38:44;;;;;;;56.97;35.60;;;;;;;;;;5061830;28;20055;-78
2022/03/23 08:41:10;;;;;;;52.28;34.58;;;;;;;;;;5059841;28;20029;-82
2022/03/23 08:43:36;;;;;;;63.63;35.88;;;;;;;;;;5051435;28;20043;-88
2022/03/23 08:46:06;;;;;;;59.10;35.33;;;;;;;;;;5062886;28;20021;-76
2022/03/23 08:48:32;;;;;;;69.93;36.15;;;;;;;;;;5048473;28;20024;-74
2022/03/23 08:50:58;;;;;;;49.22;34.17;;;;;;;;;;5057107;28;20124;-86
2022/03/23 08:53:25;;;;;;;66.15;36.33;;;;;;;;;;5065854;28;20063;-83
2022/03/23 08:55:51;;;;;;;51.72;35.53;;;;;;;;;;5068098;28;20071;-80
2022/03/23 08:58:17;;;;;;;54.95;34.58;;;;;;;;;;5067937;28;20032;-79
2022/03/23 09:00:43;;;;;;;58.88;36.00;;;;;;;;;;5064595;28;20032;-77
2022/03/23 09:03:09;;;;;;;52.40;34.85;;;;;;;;;;5067879;28;20103;-79
2022/03/23 09:05:36;;;;;;;58.00;34.75;;;;;;;;;;5066056;28;20021;-76
2022/03/23 09:08:02;;;;;;;68.38;37.38;;;;;;;;;;5065150;28;20486;-81
2022/03/23 09:10:28;;;;;;;60.03;35.33;;;;;;;;;;5061409;28;20037;-72
2022/03/23 09:12:54;;;;;;;52.78;34.25;;;;;;;;;;5061283;28;20052;-78
2022/03/23 09:15:20;;;;;;;64.65;34.25;;;;;;;;;;5070311;28;20097;-85
2022/03/23 09:17:47;;;;;;;55.85;33.60;;;;;;;;;;5069444;28;20028;-89
2022/03/23 09:20:13;;;;;;;57.97;34.83;;;;;;;;;;5064984;28;20021;-84
2022/03/23 09:22:40;;;;;;;63.10;33.72;;;;;;;;;;5058671;28;20488;-74
2022/03/23 09:25:08;;;;;;;62.60;35.00;;;;;;;;;;5062572;28;20078;-71
2022/03/23 09:27:34;;;;;;;53.58;33.35;;;;;;;;;;5063915;28;20078;-72
2022/03/23 09:30:21;;;;;;;60.10;34.58;;;;;;;;;;5070283;28;20382;-71
2022/03/23 09:32:48;;;;;;;54.90;34.00;;;;;;;;;;5048552;28;20123;-80
2022/03/23 09:35:15;;;;;;;53.80;33.83;;;;;;;;;;5049938;28;20037;-87
2022/03/23 09:37:47;;;;;;;60.10;35.90;;;;;;;;;;5050416;28;20422;-83
2022/03/23 09:40:15;;;;;;;54.78;30.80;;;;;;;;;;5051218;28;20437;-81
2022/03/23 09:42:41;;;;;;;45.47;30.17;;;;;;;;;;5048830;28;20071;-73
2022/03/23 09:45:07;;;;;;;53.72;28.67;;;;;;;;;;5047126;28;20028;-73
2022/03/23 09:47:33;;;;;;;50.53;28.08;;;;;;;;;;5051549;28;20502;-74
2022/03/23 09:50:00;;;;;;;38.97;26.00;;;;;;;;;;5048414;28;20037;-74
2022/03/23 09:52:27;;;;;;;32.42;19.65;;;;;;;;;;5048702;28;20033;-75
2022/03/23 09:54:53;;;;;;;38.10;19.98;;;;;;;;;;5049717;28;20029;-78
2022/03/23 09:57:19;;;;;;;34.10;20.75;;;;;;;;;;5034268;28;20025;-85
2022/03/23 09:59:45;;;;;;;44.28;22.10;;;;;;;;;;5049765;28;20036;-80
2022/03/23 10:02:29;;;;;;;33.63;21.30;;;;;;;;;;5050426;28;20031;-83
2022/03/23 10:05:14;;;;;;;29.45;8.98;;;;;;;;;;5064149;28;20037;-76
2022/03/23 10:07:49;;;;;;;15.30;7.38;;;;;;;;;;5070450;28;20021;-72
2022/03/23 10:10:44;;;;;;;15.18;8.43;;;;;;;;;;5059673;28;20058;-72
2022/03/23 10:13:28;;;;;;;17.77;7.90;;;;;;;;;;5059896;28;20059;-71
2022/03/23 10:16:13;;;;;;;15.20;7.20;;;;;;;;;;5065477;28;20531;-72
2022/03/23 10:18:52;;;;;;;32.72;8.93;;;;;;;;;;5064573;28;20028;-71
2022/03/23 10:21:19;;;;;;;16.42;8.20;;;;;;;;;;5059772;28;20033;-71
2022/03/23 10:24:03;;;;;;;18.15;7.90;;;;;;;;;;5067164;28;20028;-72
2022/03/23 10:26:30;;;;;;;16.42;8.00;;;;;;;;;;5063669;28;20031;-72
2022/03/23 10:28:56;;;;;;;24.85;8.63;;;;;;;;;;5064077;28;20442;-74
2022/03/23 10:31:24;;;;;;;21.95;8.90;;;;;;;;;;5057167;28;20142;-73
2022/03/23 10:33:57;;;;;;;24.35;8.43;;;;;;;;;;5062475;28;20081;-83
2022/03/23 10:36:24;;;;;;;18.33;8.50;;;;;;;;;;5063902;28;20413;-75
2022/03/23 10:38:51;;;;;;;19.88;8.88;;;;;;;;;;5065046;28;20028;-73
2022/03/23 10:41:25;;;;;;;13.45;7.72;;;;;;;;;;5063575;28;20048;-75
2022/03/23 10:43:51;;;;;;;18.67;8.77;;;;;;;;;;5067313;28;20101;-78
2022/03/23 10:46:40;;;;;;;21.42;10.07;;;;;;;;;;5063802;28;20078;-79
2022/03/23 10:49:06;;;;;;;18.45;8.38;;;;;;;;;;5065606;28;20103;-72
2022/03/23 10:51:34;;;;;;;16.98;9.30;;;;;;;;;;5069024;28;20028;-73
2022/03/23 10:54:13;;;;;;;15.43;8.57;;;;;;;;;;5066472;28;20032;-74
2022/03/23 10:56:39;;;;;;;17.17;8.90;;;;;;;;;;5059686;28;20028;-72
2022/03/23 10:59:21;;;;;;;67.10;9.27;;;;;;;;;;5064784;28;20060;-72
2022/03/23 11:01:57;;;;;;;17.80;8.38;;;;;;;;;;5062276;28;20021;-70
2022/03/23 11:04:23;;;;;;;14.43;8.38;;;;;;;;;;5061904;28;20056;-71
2022/03/23 11:06:49;;;;;;;20.20;8.55;;;;;;;;;;5066608;28;20539;-70
2022/03/23 11:18:04;;;;;;;20.30;9.95;;;;;;;;;;5062855;28;20056;-76
2022/03/23 11:20:44;;;;;;;21.25;10.15;;;;;;;;;;5060921;28;20086;-74
2022/03/23 11:23:23;;;;;;;20.65;10.45;;;;;;;;;;5065175;28;20626;-70
2022/03/23 11:25:53;;;;;;;22.17;11.02;;;;;;;;;;5066835;28;20031;-82
2022/03/23 11:28:20;;;;;;;25.15;10.38;;;;;;;;;;5063234;28;20091;-74
2022/03/23 11:30:47;;;;;;;20.88;10.05;;;;;;;;;;5063631;28;20045;-71
2022/03/23 11:33:21;;;;;;;22.55;10.27;;;;;;;;;;5060013;28;20017;-71
2022/03/23 11:35:48;;;;;;;;;;;;;;;;;;5067486;28;20028;-79
2022/03/23 11:38:16;;;;;;;18.38;9.98;;;;;;;;;;5065320;28;19912;-72
2022/03/23 11:40:44;;;;;;;25.75;11.02;;;;;;;;;;5066371;28;20063;-73
2022/03/23 11:43:10;;;;;;;21.90;9.68;;;;;;;;;;5062368;28;20025;-74
2022/03/23 11:45:38;;;;;;;18.10;10.02;;;;;;;;;;5066105;28;20032;-72
2022/03/23 11:48:16;;;;;;;21.15;10.32;;;;;;;;;;5061933;28;20025;-72
2022/03/23 11:51:00;;;;;;;21.70;10.18;;;;;;;;;;5065110;28;20093;-73
2022/03/23 11:53:35;;;;;;;18.17;9.75;;;;;;;;;;5068948;28;20028;-73
2022/03/23 11:56:02;;;;;;;17.30;9.52;;;;;;;;;;5057814;28;20024;-75
2022/03/23 11:58:37;;;;;;;21.92;9.32;;;;;;;;;;5068144;28;20021;-72
2022/03/23 12:01:12;;;;;;;21.27;9.57;;;;;;;;;;5053912;28;20505;-74
2022/03/23 12:03:41;;;;;;;24.98;9.77;;;;;;;;;;5066304;28;20082;-74
2022/03/23 12:06:14;;;;;;;16.30;9.15;;;;;;;;;;5063528;28;20089;-75
2022/03/23 12:08:47;;;;;;;17.25;8.48;;;;;;;;;;5062727;28;20482;-75
2022/03/23 12:11:32;;;;;;;35.03;10.18;;;;;;;;;;5056912;28;20064;-75
2022/03/23 12:13:59;;;;;;;15.50;9.35;;;;;;;;;;5058024;28;20028;-75
2022/03/23 12:16:44;;;;;;;16.80;8.80;;;;;;;;;;5062042;28;20426;-74
2022/03/23 12:19:13;;;;;;;21.13;9.27;;;;;;;;;;5057973;28;20434;-74
2022/03/23 12:21:48;;;;;;;20.88;9.73;;;;;;;;;;5063382;28;20534;-74
2022/03/23 12:24:18;;;;;;;17.55;10.13;;;;;;;;;;5070702;28;20035;-74
2022/03/23 12:26:47;;;;;;;22.63;9.95;;;;;;;;;;5065806;28;20020;-74
2022/03/23 12:29:16;;;;;;;17.60;7.70;;;;;;;;;;5056804;28;20056;-75
2022/03/23 12:31:42;;;;;;;13.00;6.88;;;;;;;;;;5055385;28;20044;-75
2022/03/23 12:34:23;;;;;;;13.07;7.40;;;;;;;;;;5062652;28;20021;-74
2022/03/23 12:36:57;;;;;;;16.55;7.25;;;;;;;;;;5065987;28;20119;-74
2022/03/23 12:39:24;;;;;;;24.88;8.00;;;;;;;;;;5063542;28;20394;-73
2022/03/23 12:41:50;;;;;;;18.38;8.35;;;;;;;;;;5065940;28;20013;-74
2022/03/23 12:44:16;;;;;;;20.67;6.40;;;;;;;;;;5067684;28;20389;-74
2022/03/23 12:46:46;;;;;;;18.83;7.93;;;;;;;;;;5072554;28;20419;-74
2022/03/23 13:00:25;;;;;;;14.65;7.72;;;;;;;;;;5070537;28;20036;-74
2022/03/23 13:03:03;;;;;;;14.40;7.15;;;;;;;;;;5062246;28;20074;-72
2022/03/23 13:05:31;;;;;;;18.92;7.70;;;;;;;;;;5064177;28;20025;-73
2022/03/23 13:07:58;;;;;;;16.70;8.00;;;;;;;;;;5068115;28;20090;-73
2022/03/23 13:10:27;;;;;;;15.80;7.32;;;;;;;;;;5066755;28;20041;-74
2022/03/23 13:13:05;;;;;;;13.95;6.43;;;;;;;;;;5066854;28;20036;-76
2022/03/23 13:15:31;;;;;;;14.02;7.22;;;;;;;;;;5069873;28;20085;-72
2022/03/23 13:17:57;;;;;;;17.35;7.53;;;;;;;;;;5072403;28;20386;-72
2022/03/23 13:20:26;;;;;;;12.75;6.47;;;;;;;;;;5064936;28;20036;-73
2022/03/23 13:22:53;;;;;;;11.98;6.65;;;;;;;;;;5067134;28;20021;-72
2022/03/23 13:25:19;;;;;;;16.80;6.50;;;;;;;;;;5069808;28;20020;-74
2022/03/23 13:27:46;;;;;;;12.27;5.90;;;;;;;;;;5059291;28;20071;-74
2022/03/23 13:30:14;;;;;;;18.30;6.38;;;;;;;;;;5069019;28;20505;-72
2022/03/23 13:32:48;;;;;;;13.48;5.72;;;;;;;;;;5065460;28;20032;-73
2022/03/23 13:35:22;;;;;;;11.63;6.35;;;;;;;;;;5062531;28;20021;-73
2022/03/23 13:38:00;;;;;;;15.23;5.85;;;;;;;;;;5063044;28;20033;-74
2022/03/23 13:43:19;;;;;;;11.13;5.68;;;;;;;;;;5064858;28;20082;-74
2022/03/23 13:43:22;;;;;;;10.60;5.03;;;;;;;;;;5062089;28;20363;-73
2022/03/23 13:45:49;;;;;;;13.00;5.45;;;;;;;;;;5067520;28;20130;-73
2022/03/23 13:48:15;;;;;;;9.95;4.55;;;;;;;;;;5083463;28;20479;-72
2022/03/23 13:51:00;;;;;;;11.90;5.10;;;;;;;;;;5063944;28;20393;-76
2022/03/23 13:53:27;;;;;;;11.02;5.15;;;;;;;;;;5066157;28;20024;-76
2022/03/23 13:55:54;;;;;;;15.90;5.20;;;;;;;;;;5061854;28;20398;-80
2022/03/23 13:58:21;;;;;;;14.75;5.47;;;;;;;;;;5059192;28;20031;-80
2022/03/23 14:00:51;;;;;;;11.68;5.05;;;;;;;;;;5060488;28;20029;-74
2022/03/23 14:03:20;;;;;;;23.80;5.70;;;;;;;;;;5062695;28;20102;-74
2022/03/23 14:06:02;;;;;;;11.60;5.07;;;;;;;;;;5066587;28;20389;-72
2022/03/23 14:08:36;;;;;;;26.25;6.97;;;;;;;;;;5061155;28;20090;-75
2022/03/23 14:11:03;;;;;;;12.15;5.25;;;;;;;;;;5064144;28;20037;-73
2022/03/23 14:13:33;;;;;;;14.80;5.70;;;;;;;;;;5067073;28;20024;-73
2022/03/23 14:16:00;;;;;;;12.30;5.30;;;;;;;;;;5061124;28;20031;-72
2022/03/23 14:18:27;;;;;;;13.02;6.53;;;;;;;;;;5059584;28;20052;-71
2022/03/23 14:20:54;;;;;;;11.80;5.38;;;;;;;;;;5068511;28;20020;-77
2022/03/23 14:23:22;;;;;;;19.33;5.18;;;;;;;;;;5065514;28;20029;-77
2022/03/23 14:25:51;;;;;;;15.38;5.75;;;;;;;;;;5062559;28;20048;-73
2022/03/23 14:28:22;;;;;;;10.70;4.43;;;;;;;;;;5064618;28;20036;-73
2022/03/23 14:31:01;;;;;;;14.48;4.57;;;;;;;;;;5062133;28;20490;-72
2022/03/23 14:33:27;;;;;;;11.52;4.28;;;;;;;;;;5061013;28;20033;-73
2022/03/23 14:35:56;;;;;;;10.68;4.32;;;;;;;;;;5068937;28;20059;-76
2022/03/23 14:38:26;;;;;;;8.05;4.47;;;;;;;;;;5059019;28;20033;-70
2022/03/23 14:41:10;;;;;;;12.13;4.15;;;;;;;;;;5070620;28;20038;-72
2022/03/23 14:43:37;;;;;;;11.85;4.85;;;;;;;;;;5066754;28;20032;-73
2022/03/23 14:46:25;;;;;;;11.57;4.13;;;;;;;;;;5068338;28;20100;-70
2022/03/23 14:49:14;;;;;;;7.82;4.03;;;;;;;;;;5066631;28;20402;-70
2022/03/23 14:51:57;;;;;;;11.23;4.00;;;;;;;;;;5066104;28;20045;-72
2022/03/23 14:54:23;;;;;;;13.97;4.13;;;;;;;;;;5063100;28;20054;-71
2022/03/23 14:56:49;;;;;;;9.55;4.15;;;;;;;;;;5059874;28;20343;-92
2022/03/23 14:59:15;;;;;;;17.08;4.20;;;;;;;;;;5065152;28;20117;-81
2022/03/23 15:01:42;;;;;;;7.72;3.78;;;;;;;;;;5062653;28;20021;-75